sensor_id;sensor_type;location;lat;lon;timestamp;pressure;altitude;pressure_sealevel;temperature;humidity
64158;BME280;50449;51.528;5.076;2022-09-27T00:00:25;99650.09;;;14.27;61.85
64158;BME280;50449;51.528;5.076;2022-09-27T00:02:50;99647.38;;;14.27;61.81
64158;BME280;50449;51.528;5.076;2022-09-27T00:05:16;99654.72;;;14.26;61.92
64158;BME280;50449;51.528;5.076;2022-09-27T00:07:43;99651.16;;;14.26;61.74
64158;BME280;50449;51.528;5.076;2022-09-27T00:10:09;99662.03;;;14.26;61.89
64158;BME280;50449;51.528;5.076;2022-09-27T00:12:35;99658.00;;;14.23;61.76
64158;BME280;50449;51.528;5.076;2022-09-27T00:15:00;99662.34;;;14.24;61.81
64158;BME280;50449;51.528;5.076;2022-09-27T00:17:27;99659.91;;;14.23;62.02
64158;BME280;50449;51.528;5.076;2022-09-27T00:19:52;99658.00;;;14.23;61.76
64158;BME280;50449;51.528;5.076;2022-09-27T00:22:21;99666.47;;;14.22;61.75
64158;BME280;50449;51.528;5.076;2022-09-27T00:24:46;99671.09;;;14.21;61.90
64158;BME280;50449;51.528;5.076;2022-09-27T00:27:12;99680.03;;;14.22;61.77
64158;BME280;50449;51.528;5.076;2022-09-27T00:29:37;99681.94;;;14.21;62.04
64158;BME280;50449;51.528;5.076;2022-09-27T00:32:02;99677.59;;;14.20;61.96
64158;BME280;50449;51.528;5.076;2022-09-27T00:34:28;99685.22;;;14.18;61.91
64158;BME280;50449;51.528;5.076;2022-09-27T00:36:53;99686.84;;;14.19;61.87
64158;BME280;50449;51.528;5.076;2022-09-27T00:39:19;99690.66;;;14.18;61.95
64158;BME280;50449;51.528;5.076;2022-09-27T00:41:45;99669.75;;;14.19;61.84
64158;BME280;50449;51.528;5.076;2022-09-27T00:47:03;99660.28;;;14.16;61.75
64158;BME280;50449;51.528;5.076;2022-09-27T00:49:35;99661.38;;;14.15;61.84
64158;BME280;50449;51.528;5.076;2022-09-27T00:52:25;99662.50;;;14.14;62.04
64158;BME280;50449;51.528;5.076;2022-09-27T00:54:55;99665.19;;;14.14;61.98
64158;BME280;50449;51.528;5.076;2022-09-27T00:57:23;99671.72;;;14.13;61.84
64158;BME280;50449;51.528;5.076;2022-09-27T00:59:53;99663.56;;;14.13;61.79
64158;BME280;50449;51.528;5.076;2022-09-27T01:02:22;99661.97;;;14.12;61.69
64158;BME280;50449;51.528;5.076;2022-09-27T01:04:48;99675.03;;;14.10;61.66
64158;BME280;50449;51.528;5.076;2022-09-27T01:07:14;99680.44;;;14.10;61.83
64158;BME280;50449;51.528;5.076;2022-09-27T01:09:39;99678.06;;;14.09;61.77
64158;BME280;50449;51.528;5.076;2022-09-27T01:34:02;99702.03;;;14.01;61.72
64158;BME280;50449;51.528;5.076;2022-09-27T01:47:16;99701.00;;;13.97;61.70
64158;BME280;50449;51.528;5.076;2022-09-27T01:50:05;99709.13;;;13.97;61.77
64158;BME280;50449;51.528;5.076;2022-09-27T01:53:00;99752.03;;;13.95;61.85
64158;BME280;50449;51.528;5.076;2022-09-27T01:55:30;99756.69;;;13.95;61.50
64158;BME280;50449;51.528;5.076;2022-09-27T01:58:01;99730.63;;;13.94;61.69
64158;BME280;50449;51.528;5.076;2022-09-27T02:00:28;99708.09;;;13.93;61.64
64158;BME280;50449;51.528;5.076;2022-09-27T02:03:00;99694.81;;;13.92;61.52
64158;BME280;50449;51.528;5.076;2022-09-27T02:05:36;99711.09;;;13.92;61.71
64158;BME280;50449;51.528;5.076;2022-09-27T02:08:07;99705.69;;;13.92;61.58
64158;BME280;50449;51.528;5.076;2022-09-27T02:10:40;99709.47;;;13.91;61.67
64158;BME280;50449;51.528;5.076;2022-09-27T02:13:16;99710.59;;;13.90;61.44
64158;BME280;50449;51.528;5.076;2022-09-27T02:15:51;99718.72;;;13.90;61.55
64158;BME280;50449;51.528;5.076;2022-09-27T02:21:14;99725.25;;;13.89;61.44
64158;BME280;50449;51.528;5.076;2022-09-27T02:23:46;99722.81;;;13.87;61.79
64158;BME280;50449;51.528;5.076;2022-09-27T02:26:21;99723.09;;;13.85;61.61
64158;BME280;50449;51.528;5.076;2022-09-27T02:28:59;99700.59;;;13.85;61.69
64158;BME280;50449;51.528;5.076;2022-09-27T02:31:26;99698.19;;;13.83;61.72
64158;BME280;50449;51.528;5.076;2022-09-27T02:33:57;99695.47;;;13.83;61.53
64158;BME280;50449;51.528;5.076;2022-09-27T02:36:25;99696.53;;;13.82;61.40
64158;BME280;50449;51.528;5.076;2022-09-27T02:38:51;99700.38;;;13.81;61.52
64158;BME280;50449;51.528;5.076;2022-09-27T02:41:19;99714.75;;;13.82;61.40
64158;BME280;50449;51.528;5.076;2022-09-27T02:43:49;99715.84;;;13.81;61.36
64158;BME280;50449;51.528;5.076;2022-09-27T02:54:59;99708.56;;;13.76;61.58
64158;BME280;50449;51.528;5.076;2022-09-27T02:57:41;99715.91;;;13.76;61.69
64158;BME280;50449;51.528;5.076;2022-09-27T03:00:35;99706.13;;;13.75;61.42
64158;BME280;50449;51.528;5.076;2022-09-27T03:03:13;99701.00;;;13.73;61.66
64158;BME280;50449;51.528;5.076;2022-09-27T03:05:49;99699.38;;;13.72;61.39
64158;BME280;50449;51.528;5.076;2022-09-27T03:08:17;99692.34;;;13.71;61.46
64158;BME280;50449;51.528;5.076;2022-09-27T03:10:43;99695.34;;;13.70;61.47
64158;BME280;50449;51.528;5.076;2022-09-27T03:13:08;99687.19;;;13.70;61.57
64158;BME280;50449;51.528;5.076;2022-09-27T03:15:34;99692.63;;;13.70;61.40
64158;BME280;50449;51.528;5.076;2022-09-27T03:17:59;99692.09;;;13.68;61.45
64158;BME280;50449;51.528;5.076;2022-09-27T03:20:24;99691.31;;;13.67;61.55
64158;BME280;50449;51.528;5.076;2022-09-27T03:22:50;99702.16;;;13.67;61.78
64158;BME280;50449;51.528;5.076;2022-09-27T03:25:15;99713.00;;;13.67;61.28
64158;BME280;50449;51.528;5.076;2022-09-27T03:27:42;99718.72;;;13.66;61.22
64158;BME280;50449;51.528;5.076;2022-09-27T03:30:09;99708.16;;;13.64;61.27
64158;BME280;50449;51.528;5.076;2022-09-27T03:32:35;99712.78;;;13.63;61.38
64158;BME280;50449;51.528;5.076;2022-09-27T03:35:00;99718.22;;;13.63;61.34
64158;BME280;50449;51.528;5.076;2022-09-27T03:37:25;99722.31;;;13.61;61.41
64158;BME280;50449;51.528;5.076;2022-09-27T03:39:53;99734.25;;;13.60;61.42
64158;BME280;50449;51.528;5.076;2022-09-27T03:42:19;99738.59;;;13.61;61.26
64158;BME280;50449;51.528;5.076;2022-09-27T03:44:44;99748.91;;;13.59;61.30
64158;BME280;50449;51.528;5.076;2022-09-27T03:47:09;99757.06;;;13.59;61.57
64158;BME280;50449;51.528;5.076;2022-09-27T03:49:35;99755.44;;;13.58;61.51
64158;BME280;50449;51.528;5.076;2022-09-27T03:52:00;99751.63;;;13.59;61.57
64158;BME280;50449;51.528;5.076;2022-09-27T03:54:26;99751.09;;;13.57;61.57
64158;BME280;50449;51.528;5.076;2022-09-27T03:56:51;99756.53;;;13.57;61.45
64158;BME280;50449;51.528;5.076;2022-09-27T03:59:17;99756.00;;;13.55;61.47
64158;BME280;50449;51.528;5.076;2022-09-27T04:01:42;99762.22;;;13.55;61.26
64158;BME280;50449;51.528;5.076;2022-09-27T04:04:09;99756.00;;;13.55;61.49
64158;BME280;50449;51.528;5.076;2022-09-27T04:06:34;99747.88;;;13.55;61.25
64158;BME280;50449;51.528;5.076;2022-09-27T04:09:00;99744.34;;;13.54;61.25
64158;BME280;50449;51.528;5.076;2022-09-27T04:11:26;99728.88;;;13.55;61.34
64158;BME280;50449;51.528;5.076;2022-09-27T04:13:51;99729.19;;;13.53;61.42
64158;BME280;50449;51.528;5.076;2022-09-27T04:16:17;99731.91;;;13.53;61.32
64158;BME280;50449;51.528;5.076;2022-09-27T04:18:42;99725.63;;;13.53;61.51
64158;BME280;50449;51.528;5.076;2022-09-27T04:21:08;99718.59;;;13.52;61.27
64158;BME280;50449;51.528;5.076;2022-09-27T04:23:33;99726.75;;;13.52;61.27
64158;BME280;50449;51.528;5.076;2022-09-27T04:25:59;99728.13;;;13.49;61.38
64158;BME280;50449;51.528;5.076;2022-09-27T04:28:24;99731.63;;;13.50;61.37
64158;BME280;50449;51.528;5.076;2022-09-27T04:30:50;99737.38;;;13.48;61.20
64158;BME280;50449;51.528;5.076;2022-09-27T04:33:15;99734.66;;;13.48;61.35
64158;BME280;50449;51.528;5.076;2022-09-27T04:35:42;99736.84;;;13.46;61.08
64158;BME280;50449;51.528;5.076;2022-09-27T04:38:26;99736.03;;;13.46;61.20
64158;BME280;50449;51.528;5.076;2022-09-27T04:40:51;99733.59;;;13.44;61.19
64158;BME280;50449;51.528;5.076;2022-09-27T04:43:16;99732.81;;;13.44;61.18
64158;BME280;50449;51.528;5.076;2022-09-27T04:45:42;99738.50;;;13.42;61.33
64158;BME280;50449;51.528;5.076;2022-09-27T04:48:08;99750.16;;;13.42;60.94
64158;BME280;50449;51.528;5.076;2022-09-27T04:50:33;99745.03;;;13.41;61.28
64158;BME280;50449;51.528;5.076;2022-09-27T04:52:59;99745.03;;;13.41;61.31
64158;BME280;50449;51.528;5.076;2022-09-27T04:55:25;99741.78;;;13.39;61.21
64158;BME280;50449;51.528;5.076;2022-09-27T04:57:52;99734.72;;;13.38;61.26
64158;BME280;50449;51.528;5.076;2022-09-27T05:00:18;99733.94;;;13.37;61.10
64158;BME280;50449;51.528;5.076;2022-09-27T05:02:44;99733.13;;;13.37;61.28
64158;BME280;50449;51.528;5.076;2022-09-27T05:05:12;99730.41;;;13.37;61.12
64158;BME280;50449;51.528;5.076;2022-09-27T05:07:37;99736.94;;;13.36;61.34
64158;BME280;50449;51.528;5.076;2022-09-27T05:10:04;99742.38;;;13.36;61.39
64158;BME280;50449;51.528;5.076;2022-09-27T05:12:30;99746.16;;;13.35;61.18
64158;BME280;50449;51.528;5.076;2022-09-27T05:14:55;99742.63;;;13.34;61.33
64158;BME280;50449;51.528;5.076;2022-09-27T05:17:21;99735.59;;;13.33;61.20
64158;BME280;50449;51.528;5.076;2022-09-27T05:19:48;99738.31;;;13.33;61.20
64158;BME280;50449;51.528;5.076;2022-09-27T05:22:13;99735.09;;;13.31;61.28
64158;BME280;50449;51.528;5.076;2022-09-27T05:24:39;99744.03;;;13.32;61.25
64158;BME280;50449;51.528;5.076;2022-09-27T05:27:06;99744.28;;;13.30;61.38
64158;BME280;50449;51.528;5.076;2022-09-27T05:29:32;99741.59;;;13.30;61.30
64158;BME280;50449;51.528;5.076;2022-09-27T05:31:59;99739.97;;;13.29;61.24
64158;BME280;50449;51.528;5.076;2022-09-27T05:34:24;99749.22;;;13.28;61.41
64158;BME280;50449;51.528;5.076;2022-09-27T05:36:50;99745.66;;;13.28;61.18
64158;BME280;50449;51.528;5.076;2022-09-27T05:39:15;99755.72;;;13.27;61.25
64158;BME280;50449;51.528;5.076;2022-09-27T05:41:45;99747.84;;;13.26;61.13
64158;BME280;50449;51.528;5.076;2022-09-27T05:44:10;99751.38;;;13.26;61.33
64158;BME280;50449;51.528;5.076;2022-09-27T05:46:37;99750.84;;;13.24;61.13
64158;BME280;50449;51.528;5.076;2022-09-27T05:49:03;99758.16;;;13.24;61.12
64158;BME280;50449;51.528;5.076;2022-09-27T05:51:29;99758.97;;;13.24;61.27
64158;BME280;50449;51.528;5.076;2022-09-27T05:53:54;99766.31;;;13.24;61.30
64158;BME280;50449;51.528;5.076;2022-09-27T05:56:20;99761.97;;;13.23;61.05
64158;BME280;50449;51.528;5.076;2022-09-27T05:58:45;99755.72;;;13.22;60.89
64158;BME280;50449;51.528;5.076;2022-09-27T06:01:10;99754.13;;;13.21;60.89
64158;BME280;50449;51.528;5.076;2022-09-27T06:03:36;99762.25;;;13.21;61.12
64158;BME280;50449;51.528;5.076;2022-09-27T06:06:03;99756.84;;;13.21;61.35
64158;BME280;50449;51.528;5.076;2022-09-27T06:08:33;99762.53;;;13.19;61.11
64158;BME280;50449;51.528;5.076;2022-09-27T06:11:09;99767.97;;;13.19;61.21
64158;BME280;50449;51.528;5.076;2022-09-27T06:13:37;99765.53;;;13.18;61.12
64158;BME280;50449;51.528;5.076;2022-09-27T06:16:04;99764.72;;;13.17;61.25
64158;BME280;50449;51.528;5.076;2022-09-27T06:18:30;99767.72;;;13.16;60.83
64158;BME280;50449;51.528;5.076;2022-09-27T06:20:58;99768.53;;;13.16;61.28
64158;BME280;50449;51.528;5.076;2022-09-27T06:23:24;99766.91;;;13.15;61.35
64158;BME280;50449;51.528;5.076;2022-09-27T06:25:50;99765.00;;;13.16;61.12
64158;BME280;50449;51.528;5.076;2022-09-27T06:28:17;99761.50;;;13.15;61.36
64158;BME280;50449;51.528;5.076;2022-09-27T06:30:46;99755.25;;;13.15;61.17
64158;BME280;50449;51.528;5.076;2022-09-27T06:33:14;99753.63;;;13.14;61.22
64158;BME280;50449;51.528;5.076;2022-09-27T06:35:41;99752.84;;;13.13;61.20
64158;BME280;50449;51.528;5.076;2022-09-27T06:38:14;99752.84;;;13.13;61.25
64158;BME280;50449;51.528;5.076;2022-09-27T06:40:43;99762.88;;;13.13;61.17
64158;BME280;50449;51.528;5.076;2022-09-27T06:43:13;99751.19;;;13.12;61.27
64158;BME280;50449;51.528;5.076;2022-09-27T06:45:39;99761.25;;;13.12;61.16
64158;BME280;50449;51.528;5.076;2022-09-27T06:48:06;99757.72;;;13.11;61.11
64158;BME280;50449;51.528;5.076;2022-09-27T06:50:36;99756.13;;;13.10;60.82
64158;BME280;50449;51.528;5.076;2022-09-27T06:53:03;99761.81;;;13.09;61.29
64158;BME280;50449;51.528;5.076;2022-09-27T06:55:29;99759.09;;;13.09;61.19
64158;BME280;50449;51.528;5.076;2022-09-27T06:57:55;99760.19;;;13.08;61.25
64158;BME280;50449;51.528;5.076;2022-09-27T07:00:39;99766.69;;;13.07;61.13
64158;BME280;50449;51.528;5.076;2022-09-27T07:03:10;99771.31;;;13.06;61.07
64158;BME280;50449;51.528;5.076;2022-09-27T07:05:37;99775.94;;;13.06;60.95
64158;BME280;50449;51.528;5.076;2022-09-27T07:08:03;99777.00;;;13.05;61.03
64158;BME280;50449;51.528;5.076;2022-09-27T07:10:32;99776.22;;;13.04;61.25
64158;BME280;50449;51.528;5.076;2022-09-27T07:13:05;99761.84;;;13.04;61.49
64158;BME280;50449;51.528;5.076;2022-09-27T07:15:33;99771.06;;;13.03;61.09
64158;BME280;50449;51.528;5.076;2022-09-27T07:18:01;99763.22;;;13.01;61.09
64158;BME280;50449;51.528;5.076;2022-09-27T07:20:26;99760.50;;;13.01;61.07
64158;BME280;50449;51.528;5.076;2022-09-27T07:22:54;99769.44;;;13.02;61.41
64158;BME280;50449;51.528;5.076;2022-09-27T07:25:19;99777.84;;;13.00;61.16
64158;BME280;50449;51.528;5.076;2022-09-27T07:27:45;99783.00;;;13.02;61.14
64158;BME280;50449;51.528;5.076;2022-09-27T07:30:11;99784.13;;;13.01;61.38
64158;BME280;50449;51.528;5.076;2022-09-27T07:32:36;99787.63;;;13.01;61.14
64158;BME280;50449;51.528;5.076;2022-09-27T07:35:06;99798.47;;;13.01;61.22
64158;BME280;50449;51.528;5.076;2022-09-27T07:37:33;99789.53;;;13.01;61.26
64158;BME280;50449;51.528;5.076;2022-09-27T07:40:00;99790.59;;;12.99;61.31
64158;BME280;50449;51.528;5.076;2022-09-27T07:42:26;99793.31;;;12.99;61.46
64158;BME280;50449;51.528;5.076;2022-09-27T07:44:53;99798.75;;;12.99;61.35
64158;BME280;50449;51.528;5.076;2022-09-27T07:47:20;99804.16;;;12.99;61.22
64158;BME280;50449;51.528;5.076;2022-09-27T07:49:46;99800.66;;;12.99;61.21
64158;BME280;50449;51.528;5.076;2022-09-27T07:52:11;99797.94;;;12.99;61.09
64158;BME280;50449;51.528;5.076;2022-09-27T07:54:37;99796.31;;;12.98;61.30
64158;BME280;50449;51.528;5.076;2022-09-27T07:57:02;99800.91;;;12.97;61.34
64158;BME280;50449;51.528;5.076;2022-09-27T07:59:27;99798.22;;;12.97;61.44
64158;BME280;50449;51.528;5.076;2022-09-27T08:01:53;99800.91;;;12.97;61.22
64158;BME280;50449;51.528;5.076;2022-09-27T08:04:20;99802.03;;;12.96;61.42
64158;BME280;50449;51.528;5.076;2022-09-27T08:06:45;99792.28;;;12.95;61.21
64158;BME280;50449;51.528;5.076;2022-09-27T08:09:11;99795.78;;;12.96;61.60
64158;BME280;50449;51.528;5.076;2022-09-27T08:11:36;99786.84;;;12.95;61.37
64158;BME280;50449;51.528;5.076;2022-09-27T08:14:02;99792.78;;;12.97;61.23
64158;BME280;50449;51.528;5.076;2022-09-27T08:16:29;99786.84;;;12.95;61.32
64158;BME280;50449;51.528;5.076;2022-09-27T08:18:54;99786.84;;;12.95;61.38
64158;BME280;50449;51.528;5.076;2022-09-27T08:21:19;99783.31;;;12.95;61.53
64158;BME280;50449;51.528;5.076;2022-09-27T08:23:45;99791.44;;;12.95;61.54
64158;BME280;50449;51.528;5.076;2022-09-27T08:26:10;99783.31;;;12.95;61.78
64158;BME280;50449;51.528;5.076;2022-09-27T08:28:35;99785.22;;;12.94;61.63
64158;BME280;50449;51.528;5.076;2022-09-27T08:31:04;99787.94;;;12.94;61.57
64158;BME280;50449;51.528;5.076;2022-09-27T08:33:29;99790.66;;;12.94;61.59
64158;BME280;50449;51.528;5.076;2022-09-27T08:35:54;99794.47;;;12.93;61.56
64158;BME280;50449;51.528;5.076;2022-09-27T08:38:20;99799.56;;;12.95;61.46
64158;BME280;50449;51.528;5.076;2022-09-27T08:40:55;99797.16;;;12.93;61.58
64158;BME280;50449;51.528;5.076;2022-09-27T08:43:37;99805.31;;;12.93;61.60
64158;BME280;50449;51.528;5.076;2022-09-27T08:46:21;99799.88;;;12.93;61.60
64158;BME280;50449;51.528;5.076;2022-09-27T08:49:01;99801.78;;;12.93;62.00
64158;BME280;50449;51.528;5.076;2022-09-27T08:51:29;99809.09;;;12.92;61.82
64158;BME280;50449;51.528;5.076;2022-09-27T08:54:10;99819.94;;;12.92;61.74
64158;BME280;50449;51.528;5.076;2022-09-27T08:56:38;99819.94;;;12.92;61.79
64158;BME280;50449;51.528;5.076;2022-09-27T08:59:12;99829.69;;;12.93;61.64
64158;BME280;50449;51.528;5.076;2022-09-27T09:01:39;99822.38;;;12.94;61.82
64158;BME280;50449;51.528;5.076;2022-09-27T09:04:05;99822.38;;;12.94;61.80
64158;BME280;50449;51.528;5.076;2022-09-27T09:06:39;99822.38;;;12.94;61.73
64158;BME280;50449;51.528;5.076;2022-09-27T09:15:10;99828.59;;;12.94;61.94
64158;BME280;50449;51.528;5.076;2022-09-27T09:18:15;99834.81;;;12.95;61.84
64158;BME280;50449;51.528;5.076;2022-09-27T09:21:30;99840.25;;;12.95;62.16
64158;BME280;50449;51.528;5.076;2022-09-27T09:24:30;99850.28;;;12.94;61.93
64158;BME280;50449;51.528;5.076;2022-09-27T09:29:53;99850.56;;;12.93;61.89
64158;BME280;50449;51.528;5.076;2022-09-27T09:35:13;99860.31;;;12.94;61.78
64158;BME280;50449;51.528;5.076;2022-09-27T09:37:43;99853.78;;;12.95;61.84
64158;BME280;50449;51.528;5.076;2022-09-27T09:40:23;99854.63;;;12.95;61.75
64158;BME280;50449;51.528;5.076;2022-09-27T09:43:03;99865.47;;;12.95;62.06
64158;BME280;50449;51.528;5.076;2022-09-27T09:45:35;99865.47;;;12.95;61.91
64158;BME280;50449;51.528;5.076;2022-09-27T09:48:07;99863.56;;;12.96;61.88
64158;BME280;50449;51.528;5.076;2022-09-27T09:50:46;99865.16;;;12.97;61.82
64158;BME280;50449;51.528;5.076;2022-09-27T09:53:19;99866.81;;;12.98;61.96
64158;BME280;50449;51.528;5.076;2022-09-27T09:56:06;99872.22;;;12.98;61.93
64158;BME280;50449;51.528;5.076;2022-09-27T09:58:45;99866.81;;;12.98;61.97
64158;BME280;50449;51.528;5.076;2022-09-27T10:01:17;99859.75;;;12.97;61.62
64158;BME280;50449;51.528;5.076;2022-09-27T10:03:45;99857.03;;;12.97;61.53
64158;BME280;50449;51.528;5.076;2022-09-27T10:06:10;99854.63;;;12.95;61.77
64158;BME280;50449;51.528;5.076;2022-09-27T10:08:37;99861.66;;;12.96;61.85
64158;BME280;50449;51.528;5.076;2022-09-27T10:11:02;99855.44;;;12.96;62.10
64158;BME280;50449;51.528;5.076;2022-09-27T10:13:32;99857.03;;;12.97;61.94
64158;BME280;50449;51.528;5.076;2022-09-27T10:16:02;99860.56;;;12.97;61.73
64158;BME280;50449;51.528;5.076;2022-09-27T10:18:29;99858.69;;;12.98;61.84
64158;BME280;50449;51.528;5.076;2022-09-27T10:20:59;99869.53;;;12.98;62.06
64158;BME280;50449;51.528;5.076;2022-09-27T10:23:26;99863.81;;;12.99;61.81
64158;BME280;50449;51.528;5.076;2022-09-27T10:26:00;99862.19;;;12.98;61.99
64158;BME280;50449;51.528;5.076;2022-09-27T10:31:08;99855.66;;;12.99;61.99
64158;BME280;50449;51.528;5.076;2022-09-27T10:33:37;99860.00;;;13.01;62.18
64158;BME280;50449;51.528;5.076;2022-09-27T10:36:21;99857.31;;;13.01;62.29
64158;BME280;50449;51.528;5.076;2022-09-27T10:38:53;99856.47;;;13.00;62.09
64158;BME280;50449;51.528;5.076;2022-09-27T10:41:32;99848.34;;;13.00;62.20
64158;BME280;50449;51.528;5.076;2022-09-27T10:44:24;99854.59;;;13.01;62.18
64158;BME280;50449;51.528;5.076;2022-09-27T10:46:52;99841.84;;;13.01;61.88
64158;BME280;50449;51.528;5.076;2022-09-27T10:49:24;99846.47;;;13.01;62.08
64158;BME280;50449;51.528;5.076;2022-09-27T10:51:58;99836.41;;;13.01;62.27
64158;BME280;50449;51.528;5.076;2022-09-27T10:54:29;99826.38;;;13.02;61.88
64158;BME280;50449;51.528;5.076;2022-09-27T10:57:01;99829.09;;;13.02;62.15
64158;BME280;50449;51.528;5.076;2022-09-27T10:59:35;99815.53;;;13.02;62.19
64158;BME280;50449;51.528;5.076;2022-09-27T11:02:01;99824.47;;;13.02;62.16
64158;BME280;50449;51.528;5.076;2022-09-27T11:04:36;99819.84;;;13.03;62.24
64158;BME280;50449;51.528;5.076;2022-09-27T11:07:14;99817.97;;;13.03;62.13
64158;BME280;50449;51.528;5.076;2022-09-27T11:12:33;99810.91;;;13.02;62.13
64158;BME280;50449;51.528;5.076;2022-09-27T11:15:04;99820.16;;;13.01;62.11
64158;BME280;50449;51.528;5.076;2022-09-27T11:20:27;99814.44;;;13.03;62.29
64158;BME280;50449;51.528;5.076;2022-09-27T11:25:33;99812.56;;;13.03;62.45
64158;BME280;50449;51.528;5.076;2022-09-27T11:36:13;99816.59;;;13.06;62.57
64158;BME280;50449;51.528;5.076;2022-09-27T11:44:21;99815.22;;;13.08;62.85
64158;BME280;50449;51.528;5.076;2022-09-27T11:55:03;99811.94;;;13.11;62.67
64158;BME280;50449;51.528;5.076;2022-09-27T12:00:44;99800.53;;;13.14;62.73
64158;BME280;50449;51.528;5.076;2022-09-27T12:06:01;99804.59;;;13.17;62.35
64158;BME280;50449;51.528;5.076;2022-09-27T12:11:13;99804.31;;;13.18;62.45
64158;BME280;50449;51.528;5.076;2022-09-27T12:13:46;99795.06;;;13.19;62.25
64158;BME280;50449;51.528;5.076;2022-09-27T12:16:15;99795.59;;;13.21;62.67
64158;BME280;50449;51.528;5.076;2022-09-27T12:18:41;99793.44;;;13.24;62.84
64158;BME280;50449;51.528;5.076;2022-09-27T12:21:09;99785.00;;;13.25;62.91
64158;BME280;50449;51.528;5.076;2022-09-27T12:26:06;99788.78;;;13.29;62.98
64158;BME280;50449;51.528;5.076;2022-09-27T12:28:42;99779.84;;;13.29;63.17
64158;BME280;50449;51.528;5.076;2022-09-27T12:31:31;99776.03;;;13.30;63.38
64158;BME280;50449;51.528;5.076;2022-09-27T12:36:34;99781.41;;;13.35;63.13
64158;BME280;50449;51.528;5.076;2022-09-27T12:39:20;99774.91;;;13.36;63.46
64158;BME280;50449;51.528;5.076;2022-09-27T12:41:52;99769.50;;;13.36;63.26
64158;BME280;50449;51.528;5.076;2022-09-27T12:44:20;99768.13;;;13.38;63.02
64158;BME280;50449;51.528;5.076;2022-09-27T12:46:52;99770.53;;;13.40;63.10
64158;BME280;50449;51.528;5.076;2022-09-27T12:52:11;99763.72;;;13.42;63.04
64158;BME280;50449;51.528;5.076;2022-09-27T13:03:10;99754.72;;;13.47;63.35
64158;BME280;50449;51.528;5.076;2022-09-27T13:06:09;99745.78;;;13.47;63.31
64158;BME280;50449;51.528;5.076;2022-09-27T13:14:18;99732.44;;;13.50;63.31
64158;BME280;50449;51.528;5.076;2022-09-27T13:16:45;99736.00;;;13.51;63.23
64158;BME280;50449;51.528;5.076;2022-09-27T13:19:43;99738.13;;;13.54;63.49
64158;BME280;50449;51.528;5.076;2022-09-27T13:24:39;99735.09;;;13.55;63.45
64158;BME280;50449;51.528;5.076;2022-09-27T13:32:32;99738.06;;;13.59;63.22
64158;BME280;50449;51.528;5.076;2022-09-27T13:35:22;99730.47;;;13.61;63.36
64158;BME280;50449;51.528;5.076;2022-09-27T13:37:53;99747.22;;;13.63;63.26
64158;BME280;50449;51.528;5.076;2022-09-27T13:40:27;99751.59;;;13.64;62.96
64158;BME280;50449;51.528;5.076;2022-09-27T13:45:39;99772.19;;;13.65;62.65
64158;BME280;50449;51.528;5.076;2022-09-27T13:48:14;99764.56;;;13.67;62.72
64158;BME280;50449;51.528;5.076;2022-09-27T13:55:56;99747.13;;;13.73;62.35
64158;BME280;50449;51.528;5.076;2022-09-27T13:58:50;99742.22;;;13.75;62.67
64158;BME280;50449;51.528;5.076;2022-09-27T14:01:26;99742.75;;;13.77;62.67
64158;BME280;50449;51.528;5.076;2022-09-27T14:03:55;99739.75;;;13.79;62.37
64158;BME280;50449;51.528;5.076;2022-09-27T14:06:40;99742.16;;;13.80;62.27
64158;BME280;50449;51.528;5.076;2022-09-27T14:09:15;99735.66;;;13.81;62.25
64158;BME280;50449;51.528;5.076;2022-09-27T14:11:43;99733.75;;;13.82;62.53
64158;BME280;50449;51.528;5.076;2022-09-27T14:14:19;99729.66;;;13.84;62.54
64158;BME280;50449;51.528;5.076;2022-09-27T14:16:47;99729.66;;;13.84;62.53
64158;BME280;50449;51.528;5.076;2022-09-27T14:19:19;99729.38;;;13.86;62.39
64158;BME280;50449;51.528;5.076;2022-09-27T14:21:45;99724.75;;;13.87;62.45
64158;BME280;50449;51.528;5.076;2022-09-27T14:24:30;99724.44;;;13.88;62.38
64158;BME280;50449;51.528;5.076;2022-09-27T14:27:29;99726.88;;;13.90;62.56
64158;BME280;50449;51.528;5.076;2022-09-27T14:29:57;99726.88;;;13.90;62.51
64158;BME280;50449;51.528;5.076;2022-09-27T14:32:27;99733.09;;;13.90;62.50
64158;BME280;50449;51.528;5.076;2022-09-27T14:35:11;99725.75;;;13.91;62.62
64158;BME280;50449;51.528;5.076;2022-09-27T14:38:00;99732.03;;;13.91;62.30
64158;BME280;50449;51.528;5.076;2022-09-27T14:40:26;99731.19;;;13.91;62.31
64158;BME280;50449;51.528;5.076;2022-09-27T14:42:54;99727.41;;;13.92;62.53
64158;BME280;50449;51.528;5.076;2022-09-27T14:45:33;99724.69;;;13.92;62.55
64158;BME280;50449;51.528;5.076;2022-09-27T14:48:03;99723.56;;;13.93;62.13
64158;BME280;50449;51.528;5.076;2022-09-27T14:50:55;99725.47;;;13.92;62.44
64158;BME280;50449;51.528;5.076;2022-09-27T14:53:29;99730.63;;;13.94;62.49
64158;BME280;50449;51.528;5.076;2022-09-27T14:55:55;99732.25;;;13.95;62.44
64158;BME280;50449;51.528;5.076;2022-09-27T14:58:22;99736.56;;;13.96;62.72
64158;BME280;50449;51.528;5.076;2022-09-27T15:00:48;99739.28;;;13.96;62.22
64158;BME280;50449;51.528;5.076;2022-09-27T15:03:21;99755.56;;;13.96;62.33
64158;BME280;50449;51.528;5.076;2022-09-27T15:05:49;99746.34;;;13.97;62.24
64158;BME280;50449;51.528;5.076;2022-09-27T15:08:15;99754.47;;;13.97;62.57
64158;BME280;50449;51.528;5.076;2022-09-27T15:10:43;99740.91;;;13.97;62.69
64158;BME280;50449;51.528;5.076;2022-09-27T15:13:13;99730.84;;;13.97;62.25
64158;BME280;50449;51.528;5.076;2022-09-27T15:15:39;99720.28;;;13.96;62.27
64158;BME280;50449;51.528;5.076;2022-09-27T15:20:53;99718.06;;;13.98;62.33
64158;BME280;50449;51.528;5.076;2022-09-27T15:23:30;99710.72;;;13.98;62.23
64158;BME280;50449;51.528;5.076;2022-09-27T15:26:13;99718.06;;;13.98;62.33
64158;BME280;50449;51.528;5.076;2022-09-27T15:28:51;99711.56;;;13.99;62.10
64158;BME280;50449;51.528;5.076;2022-09-27T15:31:26;99727.56;;;14.00;61.91
64158;BME280;50449;51.528;5.076;2022-09-27T15:33:55;99744.63;;;14.01;61.99
64158;BME280;50449;51.528;5.076;2022-09-27T15:39:15;99743.84;;;14.00;61.89